createdAt,value
2023-03-25T00:00:33.394Z,26.04
2023-03-25T00:01:33.407Z,26.03
2023-03-25T00:02:33.499Z,26.01
2023-03-25T00:03:33.323Z,25.98
2023-03-25T00:04:33.327Z,25.93
2023-03-25T00:05:33.299Z,25.92
2023-03-25T00:06:33.396Z,25.93
2023-03-25T00:07:33.499Z,25.92
2023-03-25T00:08:33.298Z,25.83
2023-03-25T00:09:33.218Z,25.76
2023-03-25T00:10:33.206Z,25.76
2023-03-25T00:11:33.312Z,25.74
2023-03-25T00:12:33.234Z,25.68
2023-03-25T00:13:33.534Z,25.66
2023-03-25T00:14:33.162Z,25.62
2023-03-25T00:15:33.160Z,25.61
2023-03-25T00:16:33.397Z,25.61
2023-03-25T00:17:33.249Z,25.58
2023-03-25T00:18:33.257Z,25.54
2023-03-25T00:19:33.431Z,25.52
2023-03-25T00:20:33.173Z,25.51
2023-03-25T00:21:33.175Z,25.51
2023-03-25T00:22:33.190Z,25.52
2023-03-25T00:23:33.207Z,25.52
2023-03-25T00:24:34.024Z,25.49
2023-03-25T00:25:33.423Z,25.49
2023-03-25T00:26:33.029Z,25.51
2023-03-25T00:27:33.122Z,25.52
2023-03-25T00:28:33.182Z,25.54
2023-03-25T00:29:33.097Z,25.54
2023-03-25T00:30:33.081Z,25.54
2023-03-25T00:31:33.059Z,25.61
2023-03-25T00:32:33.041Z,25.66
2023-03-25T00:33:33.059Z,25.66
2023-03-25T00:34:33.065Z,25.62
2023-03-25T00:35:32.976Z,25.55
2023-03-25T00:36:32.981Z,25.54
2023-03-25T00:37:32.991Z,25.49
2023-03-25T00:38:32.945Z,25.49
2023-03-25T00:39:32.903Z,25.46
2023-03-25T00:40:32.905Z,25.41
2023-03-25T00:41:33.047Z,25.36
2023-03-25T00:42:32.919Z,25.31
2023-03-25T00:43:32.924Z,25.31
2023-03-25T00:44:32.862Z,25.36
2023-03-25T00:45:32.874Z,25.41
2023-03-25T00:46:32.902Z,25.46
2023-03-25T00:47:33.014Z,25.48
2023-03-25T00:48:32.784Z,25.46
2023-03-25T00:49:33.065Z,25.46
2023-03-25T00:50:32.761Z,25.48
2023-03-25T00:51:32.807Z,25.51
2023-03-25T00:52:32.880Z,25.51
2023-03-25T00:53:33.027Z,25.48
2023-03-25T00:54:32.897Z,25.46
2023-03-25T00:55:32.834Z,25.43
2023-03-25T00:56:32.780Z,25.40
2023-03-25T00:57:32.756Z,25.36
2023-03-25T00:58:32.748Z,25.33
2023-03-25T00:59:33.471Z,25.30
2023-03-25T01:00:32.668Z,25.25
2023-03-25T01:01:32.674Z,25.19
2023-03-25T01:02:32.716Z,25.12
2023-03-25T01:03:32.739Z,25.22
2023-03-25T01:04:32.751Z,25.25
2023-03-25T01:05:32.693Z,25.21
2023-03-25T01:06:32.675Z,25.14
2023-03-25T01:07:32.609Z,25.07
2023-03-25T01:08:32.618Z,25.01
2023-03-25T01:09:32.622Z,24.99
2023-03-25T01:10:33.445Z,24.96
2023-03-25T01:11:33.453Z,24.94
2023-03-25T01:12:32.625Z,24.93
2023-03-25T01:13:32.540Z,24.92
2023-03-25T01:14:32.508Z,24.92
2023-03-25T01:15:32.659Z,24.89
2023-03-25T01:16:32.568Z,24.89
2023-03-25T01:17:32.524Z,24.86
2023-03-25T01:18:32.473Z,24.86
2023-03-25T01:19:32.480Z,24.88
2023-03-25T01:20:32.487Z,24.88
2023-03-25T01:21:32.594Z,24.89
2023-03-25T01:22:32.502Z,24.96
2023-03-25T01:23:32.404Z,24.93
2023-03-25T01:24:32.499Z,24.93
2023-03-25T01:25:32.619Z,24.86
2023-03-25T01:26:32.418Z,24.79
2023-03-25T01:27:32.436Z,24.75
2023-03-25T01:28:32.508Z,24.69
2023-03-25T01:29:32.347Z,24.78
2023-03-25T01:30:32.469Z,24.81
2023-03-25T01:31:32.496Z,24.84
2023-03-25T01:32:32.495Z,24.85
2023-03-25T01:33:32.367Z,24.89
2023-03-25T01:34:32.371Z,24.89
2023-03-25T01:35:33.119Z,24.89
2023-03-25T01:36:32.399Z,24.85
2023-03-25T01:37:32.511Z,24.82
2023-03-25T01:38:32.679Z,24.79
2023-03-25T01:39:32.337Z,24.81
2023-03-25T01:40:32.416Z,24.81
2023-03-25T01:41:42.663Z,24.75
2023-03-25T01:42:32.228Z,24.68
2023-03-25T01:43:32.310Z,24.65
2023-03-25T01:44:32.348Z,24.66
2023-03-25T01:45:32.250Z,24.66
2023-03-25T01:46:32.473Z,24.63
2023-03-25T01:47:32.387Z,24.62
2023-03-25T01:48:32.902Z,24.58
2023-03-25T01:49:32.220Z,24.51
2023-03-25T01:50:32.275Z,24.44
2023-03-25T01:51:32.289Z,24.46
2023-03-25T01:52:32.263Z,24.46
2023-03-25T01:53:32.278Z,24.48
2023-03-25T01:54:32.214Z,24.48
2023-03-25T01:55:32.187Z,24.48
2023-03-25T01:56:32.625Z,24.51
2023-03-25T01:57:32.122Z,24.56
2023-03-25T01:58:32.129Z,24.62
2023-03-25T01:59:32.104Z,24.61
2023-03-25T02:00:32.196Z,24.55
2023-03-25T02:01:32.048Z,24.53
2023-03-25T02:02:32.492Z,24.53
2023-03-25T02:03:32.127Z,24.51
2023-03-25T02:04:31.990Z,24.48
2023-03-25T02:05:32.063Z,24.47
2023-03-25T02:06:32.049Z,24.46
2023-03-25T02:07:32.016Z,24.46
2023-03-25T02:08:32.513Z,24.44
2023-03-25T02:09:31.966Z,24.46
2023-03-25T02:10:32.036Z,24.47
2023-03-25T02:11:32.013Z,24.47
2023-03-25T02:12:31.997Z,24.44
2023-03-25T02:13:31.950Z,24.43
2023-03-25T02:14:32.159Z,24.46
2023-03-25T02:15:31.967Z,24.46
2023-03-25T02:16:32.003Z,24.43
2023-03-25T02:17:31.935Z,24.41
2023-03-25T02:18:31.875Z,24.43
2023-03-25T02:19:31.893Z,24.43
2023-03-25T02:20:32.043Z,24.43
2023-03-25T02:21:31.895Z,24.43
2023-03-25T02:22:31.880Z,24.43
2023-03-25T02:23:31.852Z,24.43
2023-03-25T02:24:32.426Z,24.41
2023-03-25T02:25:31.885Z,24.38
2023-03-25T02:26:31.892Z,24.31
2023-03-25T02:27:31.806Z,24.26
2023-03-25T02:28:31.782Z,24.21
2023-03-25T02:29:31.793Z,24.16
2023-03-25T02:30:31.766Z,24.13
2023-03-25T02:31:31.791Z,24.09
2023-03-25T02:32:31.983Z,24.07
2023-03-25T02:33:31.764Z,24.06
2023-03-25T02:34:31.696Z,24.06
2023-03-25T02:35:31.720Z,24.06
2023-03-25T02:36:31.706Z,24.04
2023-03-25T02:37:31.760Z,24.04
2023-03-25T02:38:32.037Z,24.04
2023-03-25T02:39:31.721Z,24.04
2023-03-25T02:40:31.716Z,23.99
2023-03-25T02:41:31.631Z,23.95
2023-03-25T02:42:31.701Z,23.89
2023-03-25T02:43:31.655Z,23.89
2023-03-25T02:44:31.735Z,23.91
2023-03-25T02:45:31.639Z,23.89
2023-03-25T02:46:31.595Z,23.92
2023-03-25T02:47:31.710Z,23.92
2023-03-25T02:48:32.090Z,23.94
2023-03-25T02:49:31.601Z,23.94
2023-03-25T02:50:31.632Z,23.94
2023-03-25T02:51:31.713Z,23.94
2023-03-25T02:52:31.512Z,24.07
2023-03-25T02:53:31.590Z,24.10
2023-03-25T02:54:31.507Z,24.07
2023-03-25T02:55:31.494Z,24.09
2023-03-25T02:56:31.530Z,24.06
2023-03-25T02:57:31.446Z,24.04
2023-03-25T02:58:31.450Z,24.01
2023-03-25T02:59:31.460Z,24.01
2023-03-25T03:00:31.461Z,24.01
2023-03-25T03:01:31.501Z,24.04
2023-03-25T03:02:31.555Z,24.06
2023-03-25T03:03:31.474Z,24.03
2023-03-25T03:04:31.452Z,24.03
2023-03-25T03:05:31.478Z,23.99
2023-03-25T03:06:31.777Z,23.99
2023-03-25T03:07:31.473Z,23.99
2023-03-25T03:08:31.495Z,23.95
2023-03-25T03:09:31.321Z,23.95
2023-03-25T03:10:31.343Z,23.94
2023-03-25T03:11:31.329Z,23.95
2023-03-25T03:12:31.328Z,23.92
2023-03-25T03:13:31.336Z,23.89
2023-03-25T03:14:31.349Z,23.89
2023-03-25T03:15:31.249Z,23.86
2023-03-25T03:16:31.381Z,23.82
2023-03-25T03:17:31.324Z,23.77
2023-03-25T03:18:31.419Z,23.81
2023-03-25T03:19:31.346Z,23.81
2023-03-25T03:20:31.183Z,23.79
2023-03-25T03:21:31.192Z,23.81
2023-03-25T03:22:31.271Z,23.81
2023-03-25T03:23:31.206Z,23.81
2023-03-25T03:24:31.278Z,23.77
2023-03-25T03:25:31.192Z,23.76
2023-03-25T03:26:31.198Z,23.79
2023-03-25T03:27:31.706Z,23.81
2023-03-25T03:28:31.213Z,23.79
2023-03-25T03:29:31.142Z,23.79
2023-03-25T03:30:31.151Z,23.79
2023-03-25T03:31:48.150Z,23.79
2023-03-25T03:32:31.301Z,23.81
2023-03-25T03:33:31.066Z,23.79
2023-03-25T03:34:31.080Z,23.81
2023-03-25T03:35:31.199Z,23.81
2023-03-25T03:36:31.083Z,23.79
2023-03-25T03:37:32.036Z,23.84
2023-03-25T03:38:31.084Z,23.85
2023-03-25T03:39:31.009Z,23.86
2023-03-25T03:40:31.088Z,23.86
2023-03-25T03:41:31.099Z,23.85
2023-03-25T03:42:31.987Z,23.85
2023-03-25T03:43:31.034Z,23.85
2023-03-25T03:44:31.035Z,23.84
2023-03-25T03:45:31.757Z,23.82
2023-03-25T03:46:31.070Z,23.81
2023-03-25T03:47:31.039Z,23.81
2023-03-25T03:48:31.032Z,23.77
2023-03-25T03:49:31.264Z,23.76
2023-03-25T03:50:30.967Z,23.77
2023-03-25T03:51:30.957Z,23.77
2023-03-25T03:52:30.888Z,23.77
2023-03-25T03:53:30.888Z,23.77
2023-03-25T03:54:30.917Z,23.76
2023-03-25T03:55:31.702Z,23.76
2023-03-25T03:56:30.898Z,23.73
2023-03-25T03:57:30.827Z,23.74
2023-03-25T03:58:30.824Z,23.77
2023-03-25T03:59:31.129Z,23.77
2023-03-25T04:00:30.843Z,23.77
2023-03-25T04:01:30.955Z,23.77
2023-03-25T04:02:30.867Z,23.77
2023-03-25T04:03:30.826Z,23.74
2023-03-25T04:04:30.765Z,23.70
2023-03-25T04:05:30.959Z,23.69
2023-03-25T04:06:30.668Z,23.70
2023-03-25T04:07:30.763Z,23.69
2023-03-25T04:08:30.682Z,23.66
2023-03-25T04:09:30.691Z,23.64
2023-03-25T04:10:30.693Z,23.63
2023-03-25T04:11:30.650Z,23.63
2023-03-25T04:12:30.698Z,23.59
2023-03-25T04:13:30.669Z,23.59
2023-03-25T04:14:30.718Z,23.59
2023-03-25T04:15:30.627Z,23.62
2023-03-25T04:16:30.675Z,23.64
2023-03-25T04:17:30.548Z,23.67
2023-03-25T04:18:30.541Z,23.64
2023-03-25T04:19:30.549Z,23.62
2023-03-25T04:20:30.554Z,23.62
2023-03-25T04:21:30.558Z,23.59
2023-03-25T04:22:30.574Z,23.62
2023-03-25T04:23:30.459Z,23.66
2023-03-25T04:24:30.539Z,23.69
2023-03-25T04:25:30.471Z,23.66
2023-03-25T04:26:30.482Z,23.62
2023-03-25T04:27:30.485Z,23.59
2023-03-25T04:28:30.492Z,23.56
2023-03-25T04:29:30.466Z,23.55
2023-03-25T04:30:30.409Z,23.59
2023-03-25T04:31:30.452Z,23.63
2023-03-25T04:32:30.470Z,23.63
2023-03-25T04:33:30.492Z,23.63
2023-03-25T04:34:30.434Z,23.62
2023-03-25T04:35:30.444Z,23.58
2023-03-25T04:36:30.347Z,23.55
2023-03-25T04:37:30.354Z,23.52
2023-03-25T04:38:30.322Z,23.49
2023-03-25T04:39:30.371Z,23.44
2023-03-25T04:40:30.375Z,23.39
2023-03-25T04:41:30.334Z,23.40
2023-03-25T04:42:30.289Z,23.42
2023-03-25T04:43:30.300Z,23.40
2023-03-25T04:44:30.266Z,23.42
2023-03-25T04:45:30.371Z,23.47
2023-03-25T04:46:30.310Z,23.47
2023-03-25T04:47:30.261Z,23.48
2023-03-25T04:48:30.337Z,23.48
2023-03-25T04:49:30.238Z,23.49
2023-03-25T04:50:30.262Z,23.49
2023-03-25T04:51:30.223Z,23.48
2023-03-25T04:52:30.213Z,23.51
2023-03-25T04:53:30.210Z,23.51
2023-03-25T04:54:30.146Z,23.49
2023-03-25T04:55:30.150Z,23.45
2023-03-25T04:56:30.177Z,23.45
2023-03-25T04:57:30.180Z,23.42
2023-03-25T04:58:30.143Z,23.42
2023-03-25T04:59:30.150Z,23.37
2023-03-25T05:00:30.094Z,23.37
2023-03-25T05:01:30.091Z,23.39
2023-03-25T05:02:30.093Z,23.39
2023-03-25T05:03:30.110Z,23.40
2023-03-25T05:04:30.036Z,23.42
2023-03-25T05:05:30.101Z,23.39
2023-03-25T05:06:30.014Z,23.40
2023-03-25T05:07:30.009Z,23.40
2023-03-25T05:08:30.022Z,23.42
2023-03-25T05:09:30.008Z,23.44
2023-03-25T05:10:30.046Z,23.45
2023-03-25T05:11:30.033Z,23.47
2023-03-25T05:12:29.941Z,23.48
2023-03-25T05:13:29.921Z,23.45
2023-03-25T05:14:30.001Z,23.45
2023-03-25T05:15:29.956Z,23.45
2023-03-25T05:16:30.050Z,23.47
2023-03-25T05:17:29.963Z,23.48
2023-03-25T05:18:29.880Z,23.49
2023-03-25T05:19:29.923Z,23.52
2023-03-25T05:20:29.881Z,23.54
2023-03-25T05:21:29.895Z,23.55
2023-03-25T05:22:29.890Z,23.56
2023-03-25T05:23:29.816Z,23.58
2023-03-25T05:24:29.818Z,23.59
2023-03-25T05:25:29.836Z,23.59
2023-03-25T05:26:29.841Z,23.62
2023-03-25T05:27:29.840Z,23.59
2023-03-25T05:28:29.844Z,23.59
2023-03-25T05:29:29.749Z,23.59
2023-03-25T05:30:29.830Z,23.58
2023-03-25T05:31:29.805Z,23.58
2023-03-25T05:32:29.806Z,23.54
2023-03-25T05:33:29.787Z,23.56
2023-03-25T05:34:29.796Z,23.56
2023-03-25T05:35:29.720Z,23.55
2023-03-25T05:36:29.699Z,23.55
2023-03-25T05:37:29.726Z,23.58
2023-03-25T05:38:29.708Z,23.63
2023-03-25T05:39:29.711Z,23.66
2023-03-25T05:40:29.721Z,23.64
2023-03-25T05:41:29.629Z,23.62
2023-03-25T05:42:29.637Z,23.58
2023-03-25T05:43:29.657Z,23.52
2023-03-25T05:44:29.656Z,23.48
2023-03-25T05:45:29.653Z,23.44
2023-03-25T05:46:29.807Z,23.39
2023-03-25T05:47:29.588Z,23.34
2023-03-25T05:48:30.500Z,23.33
2023-03-25T05:49:29.590Z,23.29
2023-03-25T05:50:29.594Z,23.32
2023-03-25T05:51:29.614Z,23.32
2023-03-25T05:52:29.608Z,23.34
2023-03-25T05:53:29.508Z,23.36
2023-03-25T05:54:29.533Z,23.37
2023-03-25T05:55:29.543Z,23.39
2023-03-25T05:56:29.840Z,23.40
2023-03-25T05:57:29.535Z,23.42
2023-03-25T05:58:29.525Z,23.42
2023-03-25T05:59:29.464Z,23.40
2023-03-25T06:00:29.469Z,23.40
2023-03-25T06:01:33.725Z,23.39
2023-03-25T06:02:29.511Z,23.39
2023-03-25T06:03:29.570Z,23.34
2023-03-25T06:04:29.384Z,23.33
2023-03-25T06:05:29.493Z,23.32
2023-03-25T06:06:29.412Z,23.32
2023-03-25T06:07:29.417Z,23.28
2023-03-25T06:08:29.429Z,23.28
2023-03-25T06:09:29.550Z,23.25
2023-03-25T06:10:29.415Z,23.20
2023-03-25T06:11:29.377Z,23.18
2023-03-25T06:12:29.329Z,23.17
2023-03-25T06:13:29.723Z,23.18
2023-03-25T06:14:29.341Z,23.21
2023-03-25T06:15:29.670Z,23.23
2023-03-25T06:16:29.418Z,23.26
2023-03-25T06:17:29.642Z,23.28
2023-03-25T06:18:29.258Z,23.29
2023-03-25T06:19:29.391Z,23.32
2023-03-25T06:20:29.292Z,23.32
2023-03-25T06:21:29.361Z,23.33
2023-03-25T06:22:29.320Z,23.33
2023-03-25T06:23:29.287Z,23.33
2023-03-25T06:24:29.220Z,23.34
2023-03-25T06:25:29.701Z,23.34
2023-03-25T06:26:29.257Z,23.36
2023-03-25T06:27:30.116Z,23.37
2023-03-25T06:28:29.318Z,23.39
2023-03-25T06:29:29.211Z,23.40
2023-03-25T06:30:29.136Z,23.39
2023-03-25T06:31:29.381Z,23.34
2023-03-25T06:32:29.265Z,23.33
2023-03-25T06:33:43.027Z,23.29
2023-03-25T06:34:29.164Z,23.28
2023-03-25T06:35:29.146Z,23.25
2023-03-25T06:36:29.160Z,23.26
2023-03-25T06:37:29.578Z,23.25
2023-03-25T06:38:29.175Z,23.28
2023-03-25T06:39:29.076Z,23.28
2023-03-25T06:40:29.205Z,23.28
2023-03-25T06:41:29.087Z,23.26
2023-03-25T06:42:29.015Z,23.26
2023-03-25T06:43:29.103Z,23.28
2023-03-25T06:44:29.074Z,23.28
2023-03-25T06:45:29.144Z,23.29
2023-03-25T06:46:29.416Z,23.32
2023-03-25T06:47:29.057Z,23.33
2023-03-25T06:48:28.996Z,23.32
2023-03-25T06:49:29.044Z,23.28
2023-03-25T06:50:29.060Z,23.23
2023-03-25T06:51:29.058Z,23.20
2023-03-25T06:52:28.973Z,23.16
2023-03-25T06:53:29.126Z,23.16
2023-03-25T06:54:28.895Z,23.13
2023-03-25T06:55:28.900Z,23.11
2023-03-25T06:56:28.937Z,23.10
2023-03-25T06:57:28.950Z,23.07
2023-03-25T06:58:28.998Z,23.07
2023-03-25T06:59:28.833Z,23.07
2023-03-25T07:00:28.845Z,23.07
2023-03-25T07:01:28.913Z,23.08
2023-03-25T07:02:28.893Z,23.11
2023-03-25T07:03:28.861Z,23.11
2023-03-25T07:04:28.762Z,23.13
2023-03-25T07:05:29.755Z,23.13
2023-03-25T07:06:28.887Z,23.14
2023-03-25T07:07:28.787Z,23.13
2023-03-25T07:08:28.785Z,23.11
2023-03-25T07:09:28.819Z,23.13
2023-03-25T07:10:28.705Z,23.14
2023-03-25T07:11:28.714Z,23.16
2023-03-25T07:12:28.714Z,23.14
2023-03-25T07:13:28.734Z,23.11
2023-03-25T07:14:28.748Z,23.11
2023-03-25T07:15:28.732Z,23.10
2023-03-25T07:16:28.670Z,23.08
2023-03-25T07:17:28.670Z,23.08
2023-03-25T07:18:28.701Z,23.08
2023-03-25T07:19:28.688Z,23.07
2023-03-25T07:20:28.808Z,23.04
2023-03-25T07:21:29.210Z,23.02
2023-03-25T07:22:28.598Z,23.01
2023-03-25T07:23:28.608Z,22.99
2023-03-25T07:24:28.690Z,23.01
2023-03-25T07:25:28.629Z,23.02
2023-03-25T07:26:28.806Z,23.06
2023-03-25T07:27:28.531Z,23.07
2023-03-25T07:28:28.547Z,23.10
2023-03-25T07:29:28.533Z,23.13
2023-03-25T07:30:28.544Z,23.14
2023-03-25T07:31:28.591Z,23.13
2023-03-25T07:32:28.499Z,23.11
2023-03-25T07:33:28.474Z,23.14
2023-03-25T07:34:28.462Z,23.16
2023-03-25T07:35:28.600Z,23.17
2023-03-25T07:36:28.473Z,23.11
2023-03-25T07:37:28.482Z,23.08
2023-03-25T07:38:28.536Z,23.06
2023-03-25T07:39:28.413Z,23.07
2023-03-25T07:40:28.408Z,23.10
2023-03-25T07:41:28.581Z,23.10
2023-03-25T07:42:28.361Z,23.11
2023-03-25T07:43:28.410Z,23.11
2023-03-25T07:44:28.341Z,23.11
2023-03-25T07:45:28.403Z,23.11
2023-03-25T07:46:28.370Z,23.10
2023-03-25T07:47:28.366Z,23.07
2023-03-25T07:48:28.335Z,23.06
2023-03-25T07:49:28.349Z,23.04
2023-03-25T07:50:28.407Z,23.02
2023-03-25T07:51:28.270Z,22.99
2023-03-25T07:52:28.277Z,23.01
2023-03-25T07:53:28.284Z,22.99
2023-03-25T07:54:28.308Z,23.01
2023-03-25T07:55:28.242Z,23.01
2023-03-25T07:56:28.355Z,23.02
2023-03-25T07:57:28.212Z,23.04
2023-03-25T07:58:28.217Z,23.04
2023-03-25T07:59:29.366Z,23.07
2023-03-25T08:00:28.209Z,23.06
2023-03-25T08:01:28.173Z,23.06
2023-03-25T08:02:28.302Z,23.02
2023-03-25T08:03:28.259Z,23.01
2023-03-25T08:04:28.133Z,23.01
2023-03-25T08:05:28.160Z,22.99
2023-03-25T08:06:28.116Z,22.98
2023-03-25T08:07:28.153Z,22.99
2023-03-25T08:08:28.129Z,22.99
2023-03-25T08:09:28.067Z,22.99
2023-03-25T08:10:28.111Z,23.02
2023-03-25T08:11:28.076Z,23.04
2023-03-25T08:12:28.083Z,23.06
2023-03-25T08:13:28.097Z,23.02
2023-03-25T08:14:28.202Z,23.02
2023-03-25T08:15:28.032Z,23.02
2023-03-25T08:16:28.098Z,23.01
2023-03-25T08:17:28.096Z,23.02
2023-03-25T08:18:28.030Z,23.01
2023-03-25T08:19:28.062Z,22.96
2023-03-25T08:20:28.070Z,22.91
2023-03-25T08:21:27.987Z,22.88
2023-03-25T08:22:28.071Z,22.88
2023-03-25T08:23:27.954Z,22.92
2023-03-25T08:24:28.029Z,22.89
2023-03-25T08:25:28.048Z,22.86
2023-03-25T08:26:27.978Z,22.84
2023-03-25T08:27:28.087Z,22.86
2023-03-25T08:28:28.011Z,22.89
2023-03-25T08:29:27.899Z,22.89
2023-03-25T08:30:27.924Z,22.88
2023-03-25T08:31:27.936Z,22.88
2023-03-25T08:32:28.052Z,22.89
2023-03-25T08:33:27.941Z,22.88
2023-03-25T08:34:28.623Z,22.86
2023-03-25T08:35:27.920Z,22.84
2023-03-25T08:36:27.843Z,22.86
2023-03-25T08:37:27.848Z,22.86
2023-03-25T08:38:27.864Z,22.88
2023-03-25T08:39:27.865Z,22.86
2023-03-25T08:40:27.868Z,22.84
2023-03-25T08:41:27.773Z,22.86
2023-03-25T08:42:27.786Z,22.86
2023-03-25T08:43:27.797Z,22.84
2023-03-25T08:44:27.793Z,22.83
2023-03-25T08:45:27.778Z,22.80
2023-03-25T08:46:27.818Z,22.77
2023-03-25T08:47:27.831Z,22.76
2023-03-25T08:48:27.739Z,22.74
2023-03-25T08:49:27.703Z,22.76
2023-03-25T08:50:27.717Z,22.76
2023-03-25T08:51:27.716Z,22.76
2023-03-25T08:52:27.802Z,22.76
2023-03-25T08:53:27.708Z,22.74
2023-03-25T08:54:27.705Z,22.74
2023-03-25T08:55:27.644Z,22.70
2023-03-25T08:56:27.675Z,22.70
2023-03-25T08:57:27.657Z,22.71
2023-03-25T08:58:27.666Z,22.71
2023-03-25T08:59:27.668Z,22.71
2023-03-25T09:00:27.576Z,22.73
2023-03-25T09:01:27.643Z,22.77
2023-03-25T09:02:27.734Z,22.80
2023-03-25T09:03:27.628Z,22.80
2023-03-25T09:04:27.602Z,22.81
2023-03-25T09:05:27.594Z,22.81
2023-03-25T09:06:27.547Z,22.83
2023-03-25T09:07:27.552Z,22.83
2023-03-25T09:08:27.558Z,22.84
2023-03-25T09:09:27.529Z,22.83
2023-03-25T09:10:27.490Z,22.80
2023-03-25T09:11:36.616Z,22.80
2023-03-25T09:12:27.454Z,22.76
2023-03-25T09:13:27.455Z,22.76
2023-03-25T09:14:27.568Z,22.76
2023-03-25T09:15:27.382Z,22.76
2023-03-25T09:16:27.397Z,22.77
2023-03-25T09:17:27.381Z,22.78
2023-03-25T09:18:27.386Z,22.80
2023-03-25T09:19:27.381Z,22.77
2023-03-25T09:20:27.415Z,22.74
2023-03-25T09:21:27.316Z,22.74
2023-03-25T09:22:27.318Z,22.76
2023-03-25T09:23:27.327Z,22.77
2023-03-25T09:24:27.338Z,22.77
2023-03-25T09:25:27.330Z,22.80
2023-03-25T09:26:27.422Z,22.81
2023-03-25T09:27:27.241Z,22.84
2023-03-25T09:28:27.255Z,22.86
2023-03-25T09:29:27.241Z,22.88
2023-03-25T09:30:27.261Z,22.88
2023-03-25T09:31:27.343Z,22.86
2023-03-25T09:32:27.387Z,22.86
2023-03-25T09:33:27.191Z,22.84
2023-03-25T09:34:27.500Z,22.84
2023-03-25T09:35:27.341Z,22.84
2023-03-25T09:36:27.212Z,22.88
2023-03-25T09:37:27.204Z,22.88
2023-03-25T09:38:27.226Z,22.88
2023-03-25T09:39:27.123Z,22.91
2023-03-25T09:40:27.143Z,22.93
2023-03-25T09:41:27.151Z,22.93
2023-03-25T09:42:27.152Z,22.93
2023-03-25T09:43:27.136Z,22.95
2023-03-25T09:44:27.110Z,22.95
2023-03-25T09:45:27.124Z,22.95
2023-03-25T09:46:27.090Z,22.96
2023-03-25T09:47:27.171Z,22.96
2023-03-25T09:48:27.080Z,22.98
2023-03-25T09:49:27.795Z,22.98
2023-03-25T09:50:27.067Z,22.99
2023-03-25T09:51:27.093Z,23.01
2023-03-25T09:52:27.001Z,23.01
2023-03-25T09:53:27.651Z,22.99
2023-03-25T09:54:27.075Z,22.98
2023-03-25T09:55:27.057Z,22.99
2023-03-25T09:56:26.955Z,22.99
2023-03-25T09:57:26.959Z,23.01
2023-03-25T09:58:27.045Z,23.04
2023-03-25T09:59:26.965Z,23.07
2023-03-25T10:00:27.068Z,23.07
2023-03-25T10:01:27.778Z,23.08
2023-03-25T10:02:27.070Z,23.08
2023-03-25T10:03:26.893Z,23.07
2023-03-25T10:04:26.905Z,23.10
2023-03-25T10:05:26.898Z,23.10
2023-03-25T10:06:26.913Z,23.11
2023-03-25T10:07:26.820Z,23.13
2023-03-25T10:08:26.820Z,23.14
2023-03-25T10:09:26.906Z,23.16
2023-03-25T10:10:26.845Z,23.16
2023-03-25T10:11:26.846Z,23.14
2023-03-25T10:12:26.856Z,23.13
2023-03-25T10:13:26.828Z,23.14
2023-03-25T10:14:26.835Z,23.13
2023-03-25T10:15:26.791Z,23.14
2023-03-25T10:16:26.865Z,23.18
2023-03-25T10:17:27.425Z,23.25
2023-03-25T10:18:26.784Z,23.34
2023-03-25T10:19:26.877Z,23.40
2023-03-25T10:20:26.775Z,23.48
2023-03-25T10:21:26.800Z,23.49
2023-03-25T10:22:26.781Z,23.54
2023-03-25T10:23:26.729Z,23.54
2023-03-25T10:24:26.795Z,23.55
2023-03-25T10:25:26.718Z,23.59
2023-03-25T10:26:26.710Z,23.64
2023-03-25T10:27:26.717Z,23.67
2023-03-25T10:28:26.731Z,23.70
2023-03-25T10:29:26.721Z,23.70
2023-03-25T10:30:34.225Z,23.70
2023-03-25T10:31:26.765Z,23.71
2023-03-25T10:32:26.670Z,23.74
2023-03-25T10:33:26.593Z,23.76
2023-03-25T10:34:26.657Z,23.76
2023-03-25T10:35:26.687Z,23.74
2023-03-25T10:36:27.410Z,23.74
2023-03-25T10:37:26.692Z,23.76
2023-03-25T10:38:26.587Z,23.81
2023-03-25T10:39:26.608Z,23.84
2023-03-25T10:40:26.713Z,23.89
2023-03-25T10:41:26.619Z,23.95
2023-03-25T10:42:26.826Z,24.03
2023-03-25T10:43:26.613Z,24.10
2023-03-25T10:44:27.374Z,24.13
2023-03-25T10:45:26.539Z,24.14
2023-03-25T10:46:26.635Z,24.16
2023-03-25T10:47:26.590Z,24.19
2023-03-25T10:48:26.553Z,24.19
2023-03-25T10:49:26.361Z,24.18
2023-03-25T10:50:26.472Z,24.24
2023-03-25T10:51:26.427Z,24.22
2023-03-25T10:52:26.516Z,24.22
2023-03-25T10:53:26.470Z,24.18
2023-03-25T10:54:26.382Z,24.16
2023-03-25T10:55:26.381Z,24.14
2023-03-25T10:56:26.794Z,24.18
2023-03-25T10:57:26.535Z,24.19
2023-03-25T10:58:26.413Z,24.22
2023-03-25T10:59:26.371Z,24.25
2023-03-25T11:00:26.506Z,24.26
2023-03-25T11:01:26.299Z,24.26
2023-03-25T11:02:26.477Z,24.29
2023-03-25T11:03:26.398Z,24.32
2023-03-25T11:04:26.357Z,24.32
2023-03-25T11:05:26.349Z,24.36
2023-03-25T11:06:27.285Z,24.38
2023-03-25T11:07:26.256Z,24.40
2023-03-25T11:08:26.384Z,24.37
2023-03-25T11:09:26.285Z,24.40
2023-03-25T11:10:26.301Z,24.41
2023-03-25T11:11:26.300Z,24.44
2023-03-25T11:12:36.660Z,24.61
2023-03-25T11:13:26.308Z,24.82
2023-03-25T11:14:27.253Z,24.94
2023-03-25T11:15:26.237Z,24.97
2023-03-25T11:16:26.359Z,24.99
2023-03-25T11:17:26.247Z,25.04
2023-03-25T11:18:26.138Z,25.11
2023-03-25T11:19:26.161Z,25.19
2023-03-25T11:20:26.270Z,25.24
2023-03-25T11:21:26.068Z,25.29
2023-03-25T11:22:26.773Z,25.29
2023-03-25T11:23:26.173Z,25.30
2023-03-25T11:24:26.282Z,25.26
2023-03-25T11:25:26.093Z,25.25
2023-03-25T11:26:26.008Z,25.25
2023-03-25T11:27:26.107Z,25.25
2023-03-25T11:28:26.019Z,25.30
2023-03-25T11:29:26.123Z,25.34
2023-03-25T11:30:26.186Z,25.41
2023-03-25T11:31:26.122Z,25.51
2023-03-25T11:32:26.036Z,25.52
2023-03-25T11:33:26.045Z,25.54
2023-03-25T11:34:25.984Z,25.54
2023-03-25T11:35:26.036Z,25.58
2023-03-25T11:36:26.023Z,25.59
2023-03-25T11:37:25.898Z,25.62
2023-03-25T11:38:25.939Z,25.67
2023-03-25T11:39:25.946Z,25.68
2023-03-25T11:40:25.884Z,25.74
2023-03-25T11:41:26.202Z,25.74
2023-03-25T11:42:25.972Z,25.77
2023-03-25T11:43:25.867Z,25.80
2023-03-25T11:44:25.978Z,25.81
2023-03-25T11:45:25.883Z,25.83
2023-03-25T11:46:25.892Z,25.81
2023-03-25T11:47:25.894Z,25.86
2023-03-25T11:48:25.940Z,25.89
2023-03-25T11:49:25.829Z,25.92
2023-03-25T11:50:25.817Z,25.86
2023-03-25T11:51:25.823Z,25.91
2023-03-25T11:52:25.831Z,25.91
2023-03-25T11:53:25.799Z,25.93
2023-03-25T11:54:25.733Z,25.95
2023-03-25T11:55:25.847Z,25.95
2023-03-25T11:56:25.895Z,25.98
2023-03-25T11:57:29.604Z,26.01
2023-03-25T11:58:26.376Z,26.07
2023-03-25T11:59:25.776Z,26.18
2023-03-25T12:00:25.684Z,26.22
2023-03-25T12:01:25.777Z,26.24
2023-03-25T12:02:25.696Z,26.26
2023-03-25T12:03:25.736Z,26.27
2023-03-25T12:04:25.708Z,26.30
2023-03-25T12:05:25.614Z,26.31
2023-03-25T12:06:25.635Z,26.34
2023-03-25T12:07:25.563Z,26.37
2023-03-25T12:08:25.529Z,26.41
2023-03-25T12:09:25.745Z,26.39
2023-03-25T12:10:25.575Z,26.44
2023-03-25T12:11:25.526Z,26.46
2023-03-25T12:12:25.524Z,26.49
2023-03-25T12:13:25.567Z,26.51
2023-03-25T12:14:25.548Z,26.51
2023-03-25T12:15:25.584Z,26.52
2023-03-25T12:16:25.550Z,26.51
2023-03-25T12:17:25.592Z,26.52
2023-03-25T12:18:25.460Z,26.52
2023-03-25T12:19:25.490Z,26.46
2023-03-25T12:20:25.707Z,26.48
2023-03-25T12:21:27.179Z,26.51
2023-03-25T12:22:25.429Z,26.48
2023-03-25T12:23:25.416Z,26.46
2023-03-25T12:24:25.428Z,26.44
2023-03-25T12:25:25.521Z,26.44
2023-03-25T12:26:25.444Z,26.48
2023-03-25T12:27:25.453Z,26.48
2023-03-25T12:28:25.364Z,26.44
2023-03-25T12:29:25.351Z,26.46
2023-03-25T12:30:25.381Z,26.52
2023-03-25T12:31:25.494Z,26.56
2023-03-25T12:32:25.300Z,26.60
2023-03-25T12:33:25.290Z,26.61
2023-03-25T12:34:25.286Z,26.66
2023-03-25T12:35:25.314Z,26.66
2023-03-25T12:36:25.304Z,26.66
2023-03-25T12:37:25.316Z,26.68
2023-03-25T12:38:25.219Z,26.70
2023-03-25T12:39:39.513Z,26.71
2023-03-25T12:40:25.318Z,26.74
2023-03-25T12:41:25.239Z,26.78
2023-03-25T12:42:25.323Z,26.85
2023-03-25T12:43:25.174Z,26.86
2023-03-25T12:44:25.260Z,26.86
2023-03-25T12:45:25.219Z,26.92
2023-03-25T12:46:25.172Z,26.97
2023-03-25T12:47:25.206Z,27.00
2023-03-25T12:48:25.186Z,27.05
2023-03-25T12:49:25.175Z,27.10
2023-03-25T12:50:25.092Z,26.98
2023-03-25T12:51:25.096Z,26.89
2023-03-25T12:52:25.103Z,26.83